Wetterstation Vordersexau
Wetterdaten: Woche 22.01.18 - 28.01.18 (KW4)
Datum Zeit Temp. A. Feuchte A. Luftdruck Regen Wind Richtung Taupunkt Windchill Windben
22.01.2018 00:00 2,3 C 86 % 1010,2 hPa 0,5 l/m 0,0 km/h S-SO 0,2 C 2,3 C 0,0 km/h
22.01.2018 01:00 2,8 C 86 % 1009,4 hPa 0,5 l/m 0,0 km/h NO 0,7 C 2,8 C 0,0 km/h
22.01.2018 02:00 4,5 C 85 % 1008,7 hPa 1,0 l/m 0,0 km/h W 2,2 C 4,5 C 0,0 km/h
22.01.2018 03:00 6,8 C 81 % 1008,5 hPa 1,0 l/m 8,4 km/h W-NW 3,8 C 5,2 C 4,7 km/h
22.01.2018 04:00 8,5 C 78 % 1008,6 hPa 0,0 l/m 10,4 km/h W-SW 4,9 C 5,7 C 5,8 km/h
22.01.2018 05:00 9,1 C 82 % 1008,7 hPa 0,0 l/m 17,5 km/h W 6,2 C 3,0 C 9,7 km/h
22.01.2018 06:00 9,6 C 85 % 1008,5 hPa 0,0 l/m 25,9 km/h W-NW 7,2 C 1,1 C 14,4 km/h
22.01.2018 07:00 9,8 C 85 % 1008,5 hPa 0,0 l/m 18,8 km/h W-NW 7,4 C 3,4 C 10,4 km/h
22.01.2018 08:00 10,2 C 85 % 1008,4 hPa 0,0 l/m 24,6 km/h W-SW 7,8 C 2,2 C 13,7 km/h
22.01.2018 09:00 10,6 C 85 % 1008,6 hPa 0,0 l/m 26,6 km/h W-SW 8,2 C 2,3 C 14,8 km/h
22.01.2018 10:00 10,1 C 85 % 1008,9 hPa 0,0 l/m 16,2 km/h W-SW 7,7 C 4,8 C 9,0 km/h
22.01.2018 11:00 10,2 C 83 % 1008,5 hPa 0,5 l/m 9,7 km/h S-SW 7,4 C 8,0 C 5,4 km/h
22.01.2018 12:00 10,0 C 81 % 1007,1 hPa 0,0 l/m 11,0 km/h SW 6,9 C 7,0 C 6,1 km/h
22.01.2018 13:00 10,3 C 79 % 1006,2 hPa 0,5 l/m 18,8 km/h W 6,8 C 4,1 C 10,4 km/h
22.01.2018 14:00 10,4 C 79 % 1006,0 hPa 0,0 l/m 12,3 km/h W-SW 6,9 C 6,8 C 6,8 km/h
22.01.2018 15:00 10,4 C 78 % 1006,5 hPa 0,5 l/m 7,1 km/h W-SW 6,7 C 9,9 C 4,0 km/h
22.01.2018 16:00 10,2 C 77 % 1007,4 hPa 0,5 l/m 11,0 km/h W 6,4 C 7,3 C 6,1 km/h
22.01.2018 17:00 10,1 C 75 % 1008,3 hPa 0,0 l/m 12,3 km/h NO 5,9 C 6,5 C 6,8 km/h
22.01.2018 18:00 9,0 C 77 % 1011,4 hPa 0,5 l/m 0,0 km/h NO 5,2 C 9,0 C 0,0 km/h
22.01.2018 19:00 8,4 C 79 % 1013,2 hPa 0,5 l/m 0,0 km/h NO 5,0 C 8,4 C 0,0 km/h
22.01.2018 20:00 7,9 C 79 % 1014,4 hPa 0,0 l/m 0,0 km/h O 4,5 C 7,9 C 0,0 km/h
22.01.2018 21:00 8,1 C 78 % 1015,5 hPa 0,0 l/m 0,0 km/h NO 4,5 C 8,1 C 0,0 km/h
22.01.2018 22:00 8,1 C 77 % 1017,1 hPa 0,0 l/m 13,0 km/h NO 4,3 C 3,8 C 7,2 km/h
22.01.2018 23:00 6,9 C 80 % 1018,5 hPa 0,5 l/m 0,0 km/h NO 3,7 C 6,9 C 0,0 km/h
23.01.2018 00:00 6,7 C 79 % 1019,3 hPa 0,5 l/m 0,0 km/h NO 3,3 C 6,7 C 0,0 km/h
23.01.2018 01:00 6,3 C 78 % 1020,0 hPa 0,0 l/m 0,0 km/h S 2,8 C 6,3 C 0,0 km/h
23.01.2018 02:00 6,1 C 78 % 1021,2 hPa 0,0 l/m 0,0 km/h S 2,6 C 6,1 C 0,0 km/h
23.01.2018 03:00 5,5 C 78 % 1021,7 hPa 0,0 l/m 0,0 km/h S 2,0 C 5,5 C 0,0 km/h
23.01.2018 04:00 5,3 C 78 % 1022,2 hPa 0,0 l/m 0,0 km/h S 1,8 C 5,3 C 0,0 km/h
23.01.2018 05:00 5,2 C 77 % 1022,2 hPa 0,0 l/m 0,0 km/h S 1,5 C 5,2 C 0,0 km/h
23.01.2018 06:00 5,1 C 77 % 1022,6 hPa 0,0 l/m 0,0 km/h S-SO 1,4 C 5,1 C 0,0 km/h
23.01.2018 07:00 5,2 C 76 % 1023,5 hPa 0,0 l/m 0,0 km/h SO 1,3 C 5,2 C 0,0 km/h
23.01.2018 08:00 5,1 C 75 % 1023,8 hPa 0,0 l/m 0,0 km/h SO 1,0 C 5,1 C 0,0 km/h
23.01.2018 09:00 5,8 C 75 % 1024,6 hPa 0,0 l/m 0,0 km/h SW 1,7 C 5,8 C 0,0 km/h
23.01.2018 10:00 7,9 C 76 % 1024,9 hPa 0,0 l/m 0,0 km/h W 3,9 C 7,9 C 0,0 km/h
23.01.2018 11:00 8,4 C 86 % 1024,9 hPa 0,0 l/m 0,0 km/h W 6,2 C 8,4 C 0,0 km/h
23.01.2018 12:00 8,8 C 85 % 1024,7 hPa 0,0 l/m 4,5 km/h W-SW 6,4 C 8,8 C 2,5 km/h
23.01.2018 13:00 9,0 C 82 % 1024,2 hPa 0,0 l/m 4,5 km/h NW 6,1 C 9,0 C 2,5 km/h
23.01.2018 14:00 9,3 C 76 % 1024,1 hPa 0,0 l/m 18,8 km/h W-SW 5,3 C 2,8 C 10,4 km/h
23.01.2018 15:00 8,8 C 75 % 1024,5 hPa 0,0 l/m 18,1 km/h W 4,6 C 2,4 C 10,1 km/h
23.01.2018 16:00 8,4 C 76 % 1024,6 hPa 0,0 l/m 0,0 km/h W-NW 4,4 C 8,4 C 0,0 km/h
23.01.2018 17:00 7,2 C 77 % 1024,4 hPa 0,0 l/m 0,0 km/h S 3,4 C 7,2 C 0,0 km/h
23.01.2018 18:00 5,4 C 81 % 1024,7 hPa 0,0 l/m 0,0 km/h S 2,4 C 5,4 C 0,0 km/h
23.01.2018 19:00 5,1 C 82 % 1024,5 hPa 0,0 l/m 0,0 km/h S-SO 2,3 C 5,1 C 0,0 km/h
23.01.2018 20:00 3,8 C 85 % 1024,4 hPa 0,0 l/m 0,0 km/h SO 1,5 C 3,8 C 0,0 km/h
23.01.2018 21:00 4,5 C 85 % 1024,5 hPa 0,0 l/m 0,0 km/h SO 2,2 C 4,5 C 0,0 km/h
23.01.2018 22:00 5,3 C 86 % 1024,5 hPa 0,0 l/m 0,0 km/h SO 3,2 C 5,3 C 0,0 km/h
23.01.2018 23:00 6,5 C 85 % 1024,8 hPa 0,0 l/m 0,0 km/h S-SW 4,2 C 6,5 C 0,0 km/h
24.01.2018 00:00 8,1 C 83 % 1024,8 hPa 0,0 l/m 19,4 km/h S-SW 5,4 C 1,0 C 10,8 km/h
24.01.2018 01:00 8,0 C 84 % 1024,5 hPa 0,0 l/m 17,5 km/h W 5,5 C 1,6 C 9,7 km/h
24.01.2018 02:00 8,6 C 84 % 1024,1 hPa 0,0 l/m 0,0 km/h W-SW 6,1 C 8,6 C 0,0 km/h
24.01.2018 03:00 8,6 C 85 % 1023,7 hPa 0,0 l/m 0,0 km/h S-SW 6,2 C 8,6 C 0,0 km/h
24.01.2018 04:00 7,8 C 85 % 1023,6 hPa 0,0 l/m 0,0 km/h S-SW 5,4 C 7,8 C 0,0 km/h
24.01.2018 05:00 6,8 C 86 % 1023,0 hPa 0,0 l/m 0,0 km/h S-SW 4,6 C 6,8 C 0,0 km/h
24.01.2018 06:00 4,9 C 86 % 1022,6 hPa 0,0 l/m 0,0 km/h W-NW 2,8 C 4,9 C 0,0 km/h
24.01.2018 07:00 4,9 C 85 % 1022,7 hPa 0,0 l/m 0,0 km/h S 2,6 C 4,9 C 0,0 km/h
24.01.2018 08:00 5,3 C 81 % 1022,5 hPa 0,0 l/m 0,0 km/h S 2,3 C 5,3 C 0,0 km/h
24.01.2018 09:00 12,6 C 84 % 1022,2 hPa 0,0 l/m 0,0 km/h O-SO 10,0 C 12,6 C 0,0 km/h
24.01.2018 10:00 17,5 C 69 % 1022,0 hPa 0,0 l/m 0,0 km/h W-NW 11,7 C 17,5 C 0,0 km/h
24.01.2018 11:00 15,6 C 63 % 1021,6 hPa 0,0 l/m 23,3 km/h W 8,6 C 9,8 C 13,0 km/h
24.01.2018 12:00 15,8 C 62 % 1020,5 hPa 0,0 l/m 17,5 km/h W-SW 8,5 C 11,4 C 9,7 km/h
24.01.2018 13:00 16,2 C 61 % 1019,4 hPa 0,0 l/m 18,1 km/h SW 8,7 C 11,8 C 10,1 km/h
24.01.2018 14:00 16,9 C 59 % 1018,2 hPa 0,0 l/m 0,0 km/h S-SW 8,8 C 16,9 C 0,0 km/h
24.01.2018 15:00 16,9 C 55 % 1017,6 hPa 0,0 l/m 13,0 km/h S-SW 7,8 C 14,1 C 7,2 km/h
24.01.2018 16:00 13,2 C 64 % 1017,4 hPa 0,0 l/m 0,0 km/h NO 6,5 C 13,2 C 0,0 km/h
24.01.2018 17:00 8,9 C 76 % 1016,7 hPa 0,0 l/m 0,0 km/h SO 4,9 C 8,9 C 0,0 km/h
24.01.2018 18:00 7,6 C 81 % 1016,5 hPa 0,0 l/m 0,0 km/h SO 4,6 C 7,6 C 0,0 km/h
24.01.2018 19:00 7,5 C 83 % 1016,4 hPa 0,0 l/m 0,0 km/h S 4,8 C 7,5 C 0,0 km/h
24.01.2018 20:00 7,3 C 84 % 1016,1 hPa 0,0 l/m 0,0 km/h S-SO 4,8 C 7,3 C 0,0 km/h
24.01.2018 21:00 7,8 C 83 % 1016,2 hPa 0,0 l/m 9,7 km/h S 5,1 C 5,4 C 5,4 km/h
24.01.2018 22:00 10,1 C 72 % 1016,3 hPa 0,0 l/m 19,4 km/h S-SW 5,3 C 3,6 C 10,8 km/h
24.01.2018 23:00 11,4 C 65 % 1017,0 hPa 0,0 l/m 18,8 km/h W 5,1 C 5,5 C 10,4 km/h
25.01.2018 00:00 11,6 C 63 % 1016,9 hPa 0,0 l/m 23,3 km/h SW 4,8 C 4,4 C 13,0 km/h
25.01.2018 01:00 11,0 C 64 % 1016,9 hPa 0,0 l/m 19,4 km/h SW 4,5 C 4,8 C 10,8 km/h
25.01.2018 02:00 11,1 C 64 % 1016,7 hPa 0,0 l/m 19,4 km/h W 4,6 C 4,9 C 10,8 km/h
25.01.2018 03:00 10,8 C 66 % 1016,6 hPa 0,0 l/m 16,2 km/h SW 4,7 C 5,6 C 9,0 km/h
25.01.2018 04:00 10,4 C 67 % 1016,2 hPa 0,0 l/m 18,1 km/h S-SW 4,5 C 4,4 C 10,1 km/h
25.01.2018 05:00 10,3 C 67 % 1016,0 hPa 0,0 l/m 14,3 km/h SW 4,4 C 5,8 C 7,9 km/h
25.01.2018 06:00 10,2 C 67 % 1015,6 hPa 0,0 l/m 25,3 km/h S-SW 4,4 C 2,0 C 14,0 km/h
25.01.2018 07:00 10,1 C 67 % 1015,5 hPa 0,0 l/m 24,6 km/h S 4,3 C 2,1 C 13,7 km/h
25.01.2018 08:00 10,1 C 68 % 1015,2 hPa 0,0 l/m 13,6 km/h S-SW 4,5 C 5,9 C 7,6 km/h
25.01.2018 09:00 11,3 C 65 % 1015,0 hPa 0,0 l/m 13,6 km/h W 5,0 C 7,3 C 7,6 km/h
25.01.2018 10:00 13,4 C 58 % 1015,0 hPa 0,0 l/m 2,6 km/h W 5,3 C 13,4 C 1,4 km/h
25.01.2018 11:00 14,7 C 57 % 1014,5 hPa 0,0 l/m 26,6 km/h SW 6,3 C 7,9 C 14,8 km/h
25.01.2018 12:00 14,9 C 55 % 1013,5 hPa 0,0 l/m 25,9 km/h SW 5,9 C 8,3 C 14,4 km/h
25.01.2018 13:00 15,9 C 56 % 1012,4 hPa 0,0 l/m 6,5 km/h W 7,1 C 15,9 C 3,6 km/h
25.01.2018 14:00 15,4 C 53 % 1011,4 hPa 0,0 l/m 0,0 km/h S 5,9 C 15,4 C 0,0 km/h
25.01.2018 15:00 13,1 C 59 % 1011,6 hPa 0,0 l/m 0,0 km/h SO 5,3 C 13,1 C 0,0 km/h
25.01.2018 16:00 11,3 C 64 % 1011,4 hPa 0,0 l/m 0,0 km/h SO 4,7 C 11,3 C 0,0 km/h
25.01.2018 17:00 9,3 C 72 % 1011,2 hPa 0,0 l/m 0,0 km/h SO 4,5 C 9,3 C 0,0 km/h
25.01.2018 18:00 8,8 C 75 % 1011,3 hPa 0,0 l/m 0,0 km/h SO 4,6 C 8,8 C 0,0 km/h
25.01.2018 19:00 8,4 C 77 % 1011,5 hPa 0,0 l/m 0,0 km/h SO 4,6 C 8,4 C 0,0 km/h
25.01.2018 20:00 8,8 C 77 % 1011,3 hPa 0,0 l/m 0,0 km/h SO 5,0 C 8,8 C 0,0 km/h
25.01.2018 21:00 8,7 C 78 % 1011,4 hPa 0,0 l/m 0,0 km/h S-SO 5,1 C 8,7 C 0,0 km/h
25.01.2018 22:00 8,4 C 79 % 1011,7 hPa 0,0 l/m 0,0 km/h SO 5,0 C 8,4 C 0,0 km/h
25.01.2018 23:00 8,4 C 81 % 1011,1 hPa 0,0 l/m 0,0 km/h W-NW 5,3 C 8,4 C 0,0 km/h
26.01.2018 00:00 8,6 C 79 % 1011,2 hPa 0,0 l/m 0,0 km/h W-NW 5,2 C 8,6 C 0,0 km/h
26.01.2018 01:00 7,9 C 81 % 1011,3 hPa 0,0 l/m 0,0 km/h S 4,8 C 7,9 C 0,0 km/h
26.01.2018 02:00 7,9 C 83 % 1011,6 hPa 0,0 l/m 0,0 km/h N-NO 5,2 C 7,9 C 0,0 km/h
26.01.2018 03:00 9,1 C 80 % 1011,8 hPa 0,0 l/m 0,0 km/h N-NW 5,8 C 9,1 C 0,0 km/h
26.01.2018 04:00 7,4 C 84 % 1012,0 hPa 0,5 l/m 0,0 km/h N-NW 4,9 C 7,4 C 0,0 km/h
26.01.2018 05:00 7,1 C 85 % 1012,0 hPa 0,5 l/m 0,0 km/h N-NW 4,8 C 7,1 C 0,0 km/h
26.01.2018 06:00 6,9 C 85 % 1012,5 hPa 0,0 l/m 0,0 km/h N-NW 4,6 C 6,9 C 0,0 km/h
26.01.2018 07:00 6,9 C 85 % 1012,9 hPa 0,0 l/m 0,0 km/h N-NW 4,6 C 6,9 C 0,0 km/h
26.01.2018 08:00 6,9 C 85 % 1013,5 hPa 0,0 l/m 0,0 km/h W-NW 4,6 C 6,9 C 0,0 km/h
26.01.2018 09:00 6,9 C 83 % 1014,0 hPa 0,0 l/m 0,0 km/h NW 4,2 C 6,9 C 0,0 km/h
26.01.2018 10:00 6,6 C 82 % 1014,5 hPa 0,5 l/m 0,0 km/h NW 3,8 C 6,6 C 0,0 km/h
26.01.2018 11:00 6,9 C 82 % 1015,1 hPa 0,0 l/m 0,0 km/h NW 4,0 C 6,9 C 0,0 km/h
26.01.2018 12:00 7,3 C 83 % 1015,5 hPa 0,0 l/m 0,0 km/h N 4,6 C 7,3 C 0,0 km/h
26.01.2018 13:00 7,1 C 84 % 1015,5 hPa 0,0 l/m 0,0 km/h NW 4,6 C 7,1 C 0,0 km/h
26.01.2018 14:00 7,2 C 85 % 1016,0 hPa 0,5 l/m 0,0 km/h NW 4,9 C 7,2 C 0,0 km/h
26.01.2018 15:00 6,9 C 84 % 1016,6 hPa 0,0 l/m 0,0 km/h NW 4,4 C 6,9 C 0,0 km/h
26.01.2018 16:00 6,4 C 83 % 1017,2 hPa 1,0 l/m 0,0 km/h NW 3,7 C 6,4 C 0,0 km/h
26.01.2018 17:00 6,0 C 82 % 1018,0 hPa 0,5 l/m 1,3 km/h W-NW 3,2 C 6,0 C 0,7 km/h
26.01.2018 18:00 5,8 C 81 % 1018,9 hPa 0,5 l/m 0,0 km/h W-NW 2,8 C 5,8 C 0,0 km/h
26.01.2018 19:00 5,7 C 81 % 1019,9 hPa 0,5 l/m 0,0 km/h W-NW 2,7 C 5,7 C 0,0 km/h
26.01.2018 20:00 5,5 C 81 % 1020,3 hPa 0,0 l/m 0,0 km/h W-NW 2,5 C 5,5 C 0,0 km/h
26.01.2018 21:00 5,4 C 81 % 1021,0 hPa 0,0 l/m 0,0 km/h W-NW 2,4 C 5,4 C 0,0 km/h
26.01.2018 22:00 5,3 C 80 % 1021,3 hPa 0,5 l/m 0,0 km/h W-NW 2,1 C 5,3 C 0,0 km/h
26.01.2018 23:00 5,3 C 80 % 1022,2 hPa 0,0 l/m 0,0 km/h W-NW 2,1 C 5,3 C 0,0 km/h
27.01.2018 00:00 5,0 C 80 % 1022,4 hPa 0,0 l/m 0,0 km/h W-NW 1,8 C 5,0 C 0,0 km/h
27.01.2018 01:00 5,1 C 80 % 1022,8 hPa 0,0 l/m 0,0 km/h W-NW 1,9 C 5,1 C 0,0 km/h
27.01.2018 02:00 5,1 C 80 % 1023,4 hPa 0,5 l/m 0,0 km/h W-NW 1,9 C 5,1 C 0,0 km/h
27.01.2018 03:00 5,1 C 80 % 1023,6 hPa 0,0 l/m 0,0 km/h W-NW 1,9 C 5,1 C 0,0 km/h
27.01.2018 04:00 4,9 C 80 % 1024,1 hPa 0,0 l/m 0,0 km/h W-NW 1,7 C 4,9 C 0,0 km/h
27.01.2018 05:00 5,1 C 80 % 1024,8 hPa 0,5 l/m 0,0 km/h W-NW 1,9 C 5,1 C 0,0 km/h
27.01.2018 06:00 5,1 C 80 % 1025,5 hPa 0,0 l/m 0,0 km/h W-NW 1,9 C 5,1 C 0,0 km/h
27.01.2018 07:00 5,1 C 79 % 1026,0 hPa 0,0 l/m 0,0 km/h W-NW 1,8 C 5,1 C 0,0 km/h
27.01.2018 08:00 5,4 C 78 % 1027,1 hPa 0,0 l/m 0,0 km/h W 1,9 C 5,4 C 0,0 km/h
27.01.2018 09:00 6,1 C 77 % 1027,4 hPa 0,0 l/m 0,0 km/h S-SO 2,4 C 6,1 C 0,0 km/h
27.01.2018 10:00 6,9 C 78 % 1028,0 hPa 0,0 l/m 0,0 km/h NW 3,3 C 6,9 C 0,0 km/h
27.01.2018 11:00 7,3 C 79 % 1028,7 hPa 0,0 l/m 0,0 km/h W-NW 3,9 C 7,3 C 0,0 km/h
27.01.2018 12:00 7,6 C 82 % 1028,7 hPa 0,0 l/m 0,0 km/h W-NW 4,7 C 7,6 C 0,0 km/h
27.01.2018 13:00 7,6 C 84 % 1028,6 hPa 0,0 l/m 0,0 km/h W-NW 5,1 C 7,6 C 0,0 km/h
27.01.2018 14:00 7,8 C 84 % 1029,0 hPa 0,0 l/m 0,0 km/h W-NW 5,3 C 7,8 C 0,0 km/h
27.01.2018 15:00 7,6 C 85 % 1029,5 hPa 0,0 l/m 0,0 km/h W-NW 5,2 C 7,6 C 0,0 km/h
27.01.2018 16:00 7,4 C 85 % 1029,6 hPa 0,0 l/m 0,0 km/h W-NW 5,0 C 7,4 C 0,0 km/h
27.01.2018 17:00 6,6 C 85 % 1030,8 hPa 0,0 l/m 0,0 km/h W-NW 4,3 C 6,6 C 0,0 km/h
27.01.2018 18:00 6,3 C 84 % 1031,2 hPa 0,0 l/m 0,0 km/h W-NW 3,8 C 6,3 C 0,0 km/h
27.01.2018 19:00 6,0 C 84 % 1031,4 hPa 0,0 l/m 0,0 km/h W-NW 3,5 C 6,0 C 0,0 km/h
27.01.2018 20:00 5,9 C 83 % 1031,9 hPa 0,0 l/m 0,0 km/h W-NW 3,2 C 5,9 C 0,0 km/h
27.01.2018 21:00 5,9 C 82 % 1032,0 hPa 0,0 l/m 0,0 km/h W-NW 3,1 C 5,9 C 0,0 km/h
27.01.2018 22:00 6,0 C 81 % 1032,1 hPa 0,0 l/m 0,0 km/h SW 3,0 C 6,0 C 0,0 km/h
27.01.2018 23:00 7,1 C 85 % 1032,0 hPa 0,0 l/m 0,0 km/h W 4,8 C 7,1 C 0,0 km/h
28.01.2018 00:00 7,3 C 85 % 1032,2 hPa 0,0 l/m 0,0 km/h W-SW 4,9 C 7,3 C 0,0 km/h
28.01.2018 01:00 7,3 C 84 % 1032,3 hPa 0,0 l/m 12,3 km/h W 4,8 C 3,2 C 6,8 km/h
28.01.2018 02:00 6,6 C 84 % 1033,1 hPa 0,0 l/m 14,9 km/h W-SW 4,1 C 1,1 C 8,3 km/h
28.01.2018 03:00 6,2 C 84 % 1032,9 hPa 0,0 l/m 21,4 km/h W 3,7 C -2,1 C 11,9 km/h
28.01.2018 04:00 6,5 C 83 % 1033,2 hPa 0,0 l/m 0,0 km/h W-SW 3,8 C 6,5 C 0,0 km/h
28.01.2018 05:00 6,6 C 82 % 1033,3 hPa 0,0 l/m 3,9 km/h W-SW 3,8 C 6,6 C 2,2 km/h
28.01.2018 06:00 6,9 C 80 % 1033,4 hPa 0,0 l/m 14,3 km/h W 3,7 C 1,7 C 7,9 km/h
28.01.2018 07:00 6,9 C 80 % 1033,4 hPa 0,0 l/m 7,1 km/h SW 3,7 C 6,3 C 4,0 km/h
28.01.2018 08:00 7,0 C 79 % 1033,8 hPa 0,0 l/m 9,7 km/h W 3,6 C 4,5 C 5,4 km/h
28.01.2018 09:00 7,4 C 79 % 1034,2 hPa 0,0 l/m 20,1 km/h W 4,0 C -0,1 C 11,2 km/h
28.01.2018 10:00 7,4 C 78 % 1034,5 hPa 0,0 l/m 20,7 km/h W 3,8 C -0,3 C 11,5 km/h
28.01.2018 11:00 8,1 C 76 % 1034,8 hPa 0,0 l/m 16,2 km/h W-NW 4,1 C 2,3 C 9,0 km/h
28.01.2018 12:00 8,9 C 74 % 1034,6 hPa 0,0 l/m 36,9 km/h W 4,5 C -2,2 C 20,5 km/h
28.01.2018 13:00 9,4 C 73 % 1033,9 hPa 0,0 l/m 20,1 km/h W-NW 4,8 C 2,5 C 11,2 km/h
28.01.2018 14:00 9,7 C 72 % 1033,7 hPa 0,0 l/m 12,3 km/h W-NW 4,9 C 6,0 C 6,8 km/h
28.01.2018 15:00 9,8 C 73 % 1033,9 hPa 0,0 l/m 0,0 km/h W-SW 5,2 C 9,8 C 0,0 km/h
28.01.2018 16:00 9,3 C 75 % 1034,0 hPa 0,0 l/m 0,0 km/h SW 5,1 C 9,3 C 0,0 km/h
28.01.2018 17:00 9,1 C 77 % 1034,0 hPa 0,0 l/m 9,1 km/h NW 5,3 C 7,2 C 5,0 km/h
28.01.2018 18:00 8,9 C 79 % 1034,1 hPa 0,0 l/m 8,4 km/h W-SW 5,5 C 7,4 C 4,7 km/h
28.01.2018 19:00 8,5 C 81 % 1034,4 hPa 0,0 l/m 3,9 km/h W-NW 5,4 C 8,5 C 2,2 km/h
28.01.2018 20:00 7,4 C 82 % 1034,5 hPa 0,0 l/m 0,0 km/h W 4,5 C 7,4 C 0,0 km/h
28.01.2018 21:00 7,2 C 84 % 1034,5 hPa 0,0 l/m 0,0 km/h W-NW 4,7 C 7,2 C 0,0 km/h
28.01.2018 22:00 7,0 C 85 % 1034,0 hPa 0,0 l/m 0,0 km/h NO 4,7 C 7,0 C 0,0 km/h
28.01.2018 23:00 5,9 C 86 % 1033,6 hPa 0,0 l/m 0,0 km/h NO 3,7 C 5,9 C 0,0 km/h
Min-Datum _ 22.01.18 25.01.18 22.01.18 - 22.01.18 - 22.01.18 28.01.18 22.01.18
_ Min-Zeit 00:53 14:53 14:53 - 00:53 - 00:53 12:53 00:53
Minimum _ 2,3 C 53 % 1006,0 hPa - 0,0 km/h - 0,2 C -2,2 C 0,0 km/h
Max-Datum _ 24.01.18 22.01.18 28.01.18 22.01.18 28.01.18 - 24.01.18 24.01.18 28.01.18
_ Max-Zeit 10:53 00:53 11:53 02:53 12:53 - 10:53 10:53 12:53
Maximum _ 17,5 C 86 % 1034,8 hPa 1,0 l/m 36,9 km/h
W
- 11,7 C 17,5 C 20,5 km/h
W
Durchschnitt _ 8,2 C 78 % 1020,7 hPa #13,5 l/m 5,5 km/h W-NW 4,5 C 6,5 C 3,1 km/h
www.sexauwetter.de